createdAt,value
2019-05-01T00:02:10.122Z,8.10
2019-05-01T00:04:47.721Z,8.00
2019-05-01T00:07:19.304Z,8.00
2019-05-01T00:09:49.311Z,8.00
2019-05-01T00:12:19.720Z,7.90
2019-05-01T00:14:49.809Z,7.90
2019-05-01T00:17:21.547Z,7.90
2019-05-01T00:19:51.382Z,7.90
2019-05-01T00:22:21.248Z,7.80
2019-05-01T00:24:51.105Z,7.80
2019-05-01T00:27:20.979Z,7.80
2019-05-01T00:29:51.146Z,7.80
2019-05-01T00:32:22.082Z,7.90
2019-05-01T00:34:52.083Z,7.90
2019-05-01T00:37:21.991Z,7.90
2019-05-01T00:39:51.850Z,7.90
2019-05-01T00:42:21.827Z,7.90
2019-05-01T00:44:51.676Z,7.80
2019-05-01T00:47:21.672Z,7.70
2019-05-01T00:49:51.592Z,7.70
2019-05-01T00:52:21.447Z,7.60
2019-05-01T00:54:53.423Z,7.50
2019-05-01T00:57:32.409Z,7.50
2019-05-01T01:00:10.462Z,7.50
2019-05-01T01:02:42.043Z,7.50
2019-05-01T01:05:11.975Z,7.50
2019-05-01T01:07:41.987Z,7.40
2019-05-01T01:10:12.267Z,7.30
2019-05-01T01:12:42.099Z,7.40
2019-05-01T01:15:12.443Z,7.30
2019-05-01T01:17:42.437Z,7.30
2019-05-01T01:20:12.814Z,7.20
2019-05-01T01:22:42.952Z,7.30
2019-05-01T01:25:13.399Z,7.30
2019-05-01T01:27:43.476Z,7.30
2019-05-01T01:30:15.653Z,7.20
2019-05-01T01:32:45.493Z,7.20
2019-05-01T01:35:15.459Z,7.20
2019-05-01T01:37:45.373Z,7.10
2019-05-01T01:40:16.513Z,7.10
2019-05-01T01:42:48.352Z,7.10
2019-05-01T01:45:20.075Z,7.00
2019-05-01T01:48:09.911Z,7.00
2019-05-01T01:50:42.860Z,7.00
2019-05-01T01:53:15.051Z,6.90
2019-05-01T01:55:46.673Z,6.90
2019-05-01T01:58:17.559Z,6.80
2019-05-01T02:01:09.689Z,6.80
2019-05-01T02:03:39.551Z,6.70
2019-05-01T02:06:09.621Z,6.70
2019-05-01T02:08:39.923Z,6.60
2019-05-01T02:11:09.917Z,6.60
2019-05-01T02:13:40.068Z,6.50
2019-05-01T02:16:09.974Z,6.50
2019-05-01T02:18:40.050Z,6.40
2019-05-01T02:21:10.006Z,6.40
2019-05-01T02:23:39.978Z,6.50
2019-05-01T02:26:11.712Z,6.40
2019-05-01T02:28:53.174Z,6.50
2019-05-01T02:31:35.790Z,6.40
2019-05-01T02:34:06.895Z,6.40
2019-05-01T02:36:38.395Z,6.40
2019-05-01T02:39:09.683Z,6.30
2019-05-01T02:41:42.699Z,6.20
2019-05-01T02:44:18.600Z,6.10
2019-05-01T02:46:50.979Z,6.20
2019-05-01T02:49:36.071Z,6.10
2019-05-01T02:52:09.041Z,6.10
2019-05-01T02:54:40.703Z,6.10
2019-05-01T02:57:12.573Z,6.00
2019-05-01T02:59:45.771Z,6.00
2019-05-01T03:02:17.246Z,6.00
2019-05-01T03:04:47.931Z,6.00
2019-05-01T03:07:19.961Z,6.00
2019-05-01T03:09:51.486Z,6.00
2019-05-01T03:12:24.622Z,5.90
2019-05-01T03:14:57.405Z,6.00
2019-05-01T03:17:44.972Z,6.00
2019-05-01T03:20:26.647Z,6.00
2019-05-01T03:23:13.752Z,6.00
2019-05-01T03:25:43.920Z,5.90
2019-05-01T03:28:14.219Z,5.90
2019-05-01T03:30:44.747Z,5.90
2019-05-01T03:33:14.726Z,5.90
2019-05-01T03:35:44.734Z,5.90
2019-05-01T03:38:15.015Z,5.90
2019-05-01T03:40:45.243Z,5.90
2019-05-01T03:43:15.392Z,6.00
2019-05-01T03:45:45.475Z,6.00
2019-05-01T03:48:15.781Z,6.10
2019-05-01T03:50:47.123Z,6.00
2019-05-01T03:53:18.549Z,6.00
2019-05-01T03:55:48.976Z,6.00
2019-05-01T03:58:19.522Z,6.00
2019-05-01T04:00:51.281Z,6.00
2019-05-01T04:03:35.375Z,6.00
2019-05-01T04:06:06.362Z,5.90
2019-05-01T04:08:37.121Z,6.00
2019-05-01T04:11:07.319Z,6.00
2019-05-01T04:13:37.668Z,6.00
2019-05-01T04:16:08.635Z,6.00
2019-05-01T04:18:39.437Z,5.90
2019-05-01T04:21:09.871Z,6.00
2019-05-01T04:23:42.191Z,6.00
2019-05-01T04:26:12.473Z,5.90
2019-05-01T04:28:53.604Z,6.00
2019-05-01T04:31:25.900Z,6.20
2019-05-01T04:33:57.387Z,6.70
2019-05-01T04:36:29.123Z,6.60
2019-05-01T04:39:11.067Z,6.80
2019-05-01T04:41:41.017Z,7.10
2019-05-01T04:44:11.381Z,7.40
2019-05-01T04:46:41.343Z,7.60
2019-05-01T04:49:11.838Z,7.90
2019-05-01T04:51:42.179Z,8.20
2019-05-01T04:54:12.713Z,8.70
2019-05-01T04:56:43.402Z,9.30
2019-05-01T04:59:14.283Z,9.80
2019-05-01T05:01:58.334Z,10.60
2019-05-01T05:04:30.016Z,11.20
2019-05-01T05:07:01.194Z,11.90
2019-05-01T05:09:42.188Z,12.40
2019-05-01T05:12:17.333Z,12.70
2019-05-01T05:14:58.456Z,13.40
2019-05-01T05:17:28.846Z,13.90
2019-05-01T05:19:58.985Z,14.70
2019-05-01T05:22:30.256Z,15.30
2019-05-01T05:25:00.604Z,15.70
2019-05-01T05:27:30.806Z,15.50
2019-05-01T05:30:01.488Z,15.00
2019-05-01T05:32:33.565Z,14.00
2019-05-01T05:35:05.967Z,13.30
2019-05-01T05:37:58.073Z,12.50
2019-05-01T05:40:32.355Z,12.20
2019-05-01T05:43:04.498Z,12.40
2019-05-01T05:45:34.836Z,12.10
2019-05-01T05:48:05.087Z,12.00
2019-05-01T05:50:41.268Z,12.50
2019-05-01T05:53:15.838Z,12.70
2019-05-01T05:56:01.959Z,12.60
2019-05-01T05:58:36.569Z,12.60
2019-05-01T06:01:25.380Z,12.60
2019-05-01T06:04:17.090Z,13.40
2019-05-01T06:06:54.390Z,14.70
2019-05-01T06:09:29.047Z,15.30
2019-05-01T06:12:08.963Z,16.10
2019-05-01T06:15:02.278Z,16.40
2019-05-01T06:17:42.994Z,16.70
2019-05-01T06:20:27.699Z,17.30
2019-05-01T06:23:04.261Z,17.90
2019-05-01T06:25:37.830Z,17.80
2019-05-01T06:28:09.668Z,17.70
2019-05-01T06:30:41.934Z,17.70
2019-05-01T06:33:12.490Z,17.30
2019-05-01T06:35:42.589Z,17.30
2019-05-01T06:38:15.713Z,17.30
2019-05-01T06:40:48.105Z,17.10
2019-05-01T06:43:25.368Z,17.30
2019-05-01T06:45:56.296Z,17.50
2019-05-01T06:48:28.227Z,17.90
2019-05-01T06:50:59.784Z,18.10
2019-05-01T06:53:29.877Z,18.60
2019-05-01T06:56:00.012Z,18.90
2019-05-01T06:58:32.712Z,18.90
2019-05-01T07:01:01.666Z,18.20
2019-05-01T07:03:31.872Z,16.90
2019-05-01T07:06:13.791Z,16.30
2019-05-01T07:08:34.463Z,16.30
2019-05-01T07:11:05.853Z,16.50
2019-05-01T07:13:40.136Z,16.40
2019-05-01T07:16:09.120Z,16.50
2019-05-01T07:18:39.322Z,16.60
2019-05-01T07:21:09.280Z,16.50
2019-05-01T07:23:39.333Z,16.40
2019-05-01T07:26:09.968Z,16.50
2019-05-01T07:28:42.705Z,16.60
2019-05-01T07:31:14.473Z,16.80
2019-05-01T07:33:46.980Z,16.80
2019-05-01T07:36:18.383Z,16.60
2019-05-01T07:38:48.669Z,16.80
2019-05-01T07:41:18.595Z,16.90
2019-05-01T07:44:06.955Z,16.90
2019-05-01T07:46:38.577Z,16.70
2019-05-01T07:49:12.982Z,16.60
2019-05-01T07:51:43.410Z,16.60
2019-05-01T07:54:13.569Z,16.60
2019-05-01T07:56:44.997Z,16.60
2019-05-01T07:59:15.183Z,16.60
2019-05-01T08:01:49.944Z,16.50
2019-05-01T08:04:26.849Z,16.50
2019-05-01T08:06:52.006Z,16.50
2019-05-01T08:09:21.479Z,16.50
2019-05-01T08:11:51.402Z,16.50
2019-05-01T08:14:21.334Z,15.70
2019-05-01T08:16:51.393Z,16.30
2019-05-01T08:19:40.718Z,16.60
2019-05-01T08:22:12.361Z,17.10
2019-05-01T08:24:42.275Z,17.80
2019-05-01T08:27:15.724Z,17.00
2019-05-01T08:29:54.239Z,17.40
2019-05-01T08:32:33.740Z,17.90
2019-05-01T08:35:05.754Z,18.30
2019-05-01T08:37:35.707Z,18.50
2019-05-01T08:40:07.316Z,18.70
2019-05-01T08:42:42.728Z,18.30
2019-05-01T08:45:14.615Z,18.00
2019-05-01T08:48:01.516Z,17.60
2019-05-01T08:50:31.689Z,17.50
2019-05-01T08:53:01.567Z,18.20
2019-05-01T08:55:32.772Z,17.90
2019-05-01T08:58:02.747Z,17.70
2019-05-01T09:00:36.432Z,18.10
2019-05-01T09:03:08.707Z,18.70
2019-05-01T09:05:36.233Z,18.50
2019-05-01T09:08:06.302Z,18.70
2019-05-01T09:10:36.353Z,19.30
2019-05-01T09:13:06.594Z,19.60
2019-05-01T09:15:36.636Z,19.60
2019-05-01T09:18:06.808Z,19.50
2019-05-01T09:20:38.795Z,19.70
2019-05-01T09:23:09.537Z,19.90
2019-05-01T09:25:54.497Z,19.70
2019-05-01T09:28:29.518Z,19.80
2019-05-01T09:31:02.090Z,19.70
2019-05-01T09:33:34.084Z,19.80
2019-05-01T09:36:04.252Z,19.80
2019-05-01T09:38:35.189Z,20.00
2019-05-01T09:41:05.531Z,20.80
2019-05-01T09:43:36.902Z,21.50
2019-05-01T09:46:07.153Z,22.10
2019-05-01T09:48:37.151Z,22.50
2019-05-01T09:51:17.961Z,22.70
2019-05-01T09:53:52.497Z,22.10
2019-05-01T09:56:24.050Z,21.60
2019-05-01T09:58:54.876Z,21.50
2019-05-01T10:01:31.679Z,21.60
2019-05-01T10:03:57.178Z,21.40
2019-05-01T10:06:27.214Z,21.20
2019-05-01T10:08:57.163Z,20.70
2019-05-01T10:11:27.028Z,20.60
2019-05-01T10:13:58.551Z,20.60
2019-05-01T10:16:28.542Z,20.60
2019-05-01T10:18:58.488Z,20.80
2019-05-01T10:21:28.965Z,21.10
2019-05-01T10:23:58.979Z,22.00
2019-05-01T10:26:33.066Z,23.00
2019-05-01T10:29:25.936Z,22.70
2019-05-01T10:32:21.520Z,21.90
2019-05-01T10:34:56.868Z,22.00
2019-05-01T10:37:28.614Z,22.50
2019-05-01T10:40:01.365Z,22.60
2019-05-01T10:42:31.711Z,22.50
2019-05-01T10:45:01.766Z,22.50
2019-05-01T10:47:31.818Z,22.30
2019-05-01T10:50:04.108Z,22.40
2019-05-01T10:52:37.142Z,22.20
2019-05-01T10:55:10.233Z,22.40
2019-05-01T10:57:42.214Z,23.60
2019-05-01T11:00:14.103Z,23.90
2019-05-01T11:02:44.043Z,23.30
2019-05-01T11:05:14.065Z,23.10
2019-05-01T11:07:45.751Z,22.10
2019-05-01T11:10:16.037Z,21.30
2019-05-01T11:12:45.971Z,20.90
2019-05-01T11:15:16.297Z,20.70
2019-05-01T11:17:46.712Z,20.20
2019-05-01T11:20:16.673Z,19.60
2019-05-01T11:22:46.644Z,19.10
2019-05-01T11:25:18.093Z,18.90
2019-05-01T11:27:48.190Z,18.90
2019-05-01T11:30:18.187Z,18.70
2019-05-01T11:33:01.753Z,18.50
2019-05-01T11:35:49.818Z,18.30
2019-05-01T11:38:24.105Z,18.30
2019-05-01T11:41:04.760Z,18.30
2019-05-01T11:43:34.651Z,18.30
2019-05-01T11:46:04.820Z,18.20
2019-05-01T11:48:34.771Z,18.30
2019-05-01T11:51:04.879Z,18.30
2019-05-01T11:53:34.743Z,18.40
2019-05-01T11:56:05.444Z,18.20
2019-05-01T11:58:35.329Z,18.20
2019-05-01T12:01:05.897Z,18.20
2019-05-01T12:03:35.907Z,18.30
2019-05-01T12:06:05.836Z,18.40
2019-05-01T12:08:35.735Z,18.40
2019-05-01T12:11:07.488Z,18.40
2019-05-01T12:13:43.939Z,18.50
2019-05-01T12:16:22.816Z,18.40
2019-05-01T12:18:52.765Z,18.60
2019-05-01T12:21:22.761Z,18.70
2019-05-01T12:23:52.624Z,18.50
2019-05-01T12:26:23.572Z,18.60
2019-05-01T12:28:53.503Z,18.60
2019-05-01T12:31:23.427Z,18.50
2019-05-01T12:33:53.380Z,18.60
2019-05-01T12:36:35.157Z,18.70
2019-05-01T12:38:54.827Z,18.90
2019-05-01T12:41:29.397Z,18.80
2019-05-01T12:43:59.286Z,18.80
2019-05-01T12:46:40.127Z,18.90
2019-05-01T12:49:10.092Z,19.00
2019-05-01T12:51:41.514Z,19.10
2019-05-01T12:54:13.132Z,19.20
2019-05-01T12:56:47.579Z,19.30
2019-05-01T12:59:17.649Z,19.50
2019-05-01T13:01:47.615Z,19.50
2019-05-01T13:04:17.560Z,19.40
2019-05-01T13:06:51.831Z,19.20
2019-05-01T13:09:21.778Z,19.20
2019-05-01T13:11:51.911Z,19.20
2019-05-01T13:14:22.812Z,19.20
2019-05-01T13:16:52.713Z,19.50
2019-05-01T13:19:23.747Z,19.50
2019-05-01T13:21:53.695Z,19.40
2019-05-01T13:24:23.608Z,19.30
2019-05-01T13:26:55.223Z,19.40
2019-05-01T13:29:47.601Z,19.40
2019-05-01T13:32:45.055Z,19.30
2019-05-01T13:35:15.292Z,19.70
2019-05-01T13:37:45.188Z,19.90
2019-05-01T13:40:16.253Z,20.10
2019-05-01T13:42:46.265Z,20.40
2019-05-01T13:45:16.589Z,20.50
2019-05-01T13:47:46.515Z,20.20
2019-05-01T13:50:16.648Z,19.40
2019-05-01T13:52:46.957Z,19.50
2019-05-01T13:55:17.437Z,19.70
2019-05-01T13:57:47.511Z,19.70
2019-05-01T14:00:19.286Z,19.90
2019-05-01T14:02:50.104Z,19.90
2019-05-01T14:05:20.499Z,20.00
2019-05-01T14:07:50.584Z,19.80
2019-05-01T14:10:20.665Z,19.70
2019-05-01T14:12:50.829Z,19.70
2019-05-01T14:15:20.732Z,19.60
2019-05-01T14:17:50.698Z,19.60
2019-05-01T14:20:34.442Z,19.30
2019-05-01T14:23:06.191Z,19.40
2019-05-01T14:25:53.722Z,19.50
2019-05-01T14:28:23.601Z,19.60
2019-05-01T14:30:53.559Z,19.60
2019-05-01T14:33:23.430Z,19.50
2019-05-01T14:35:53.365Z,19.80
2019-05-01T14:38:24.460Z,20.00
2019-05-01T14:40:54.450Z,20.20
2019-05-01T14:43:24.505Z,20.50
2019-05-01T14:45:55.963Z,20.80
2019-05-01T14:48:26.114Z,20.70
2019-05-01T14:50:56.227Z,20.40
2019-05-01T14:53:26.111Z,20.20
2019-05-01T14:55:58.028Z,20.40
2019-05-01T14:58:28.120Z,20.70
2019-05-01T15:00:58.000Z,20.80
2019-05-01T15:03:28.649Z,21.00
2019-05-01T15:06:03.684Z,21.30
2019-05-01T15:08:33.683Z,21.20
2019-05-01T15:11:05.765Z,21.30
2019-05-01T15:13:46.372Z,21.30
2019-05-01T15:16:18.111Z,21.00
2019-05-01T15:19:05.600Z,20.90
2019-05-01T15:21:35.565Z,20.70
2019-05-01T15:24:05.775Z,20.50
2019-05-01T15:26:35.820Z,20.30
2019-05-01T15:29:05.883Z,20.50
2019-05-01T15:31:35.857Z,20.60
2019-05-01T15:34:05.884Z,20.80
2019-05-01T15:36:36.161Z,20.70
2019-05-01T15:39:10.271Z,20.50
2019-05-01T15:41:59.422Z,20.50
2019-05-01T15:44:30.981Z,20.60
2019-05-01T15:47:00.911Z,20.40
2019-05-01T15:49:30.840Z,20.60
2019-05-01T15:52:00.853Z,20.70
2019-05-01T15:54:30.722Z,20.80
2019-05-01T15:57:01.353Z,20.90
2019-05-01T15:59:43.427Z,20.90
2019-05-01T16:02:26.917Z,20.80
2019-05-01T16:05:01.117Z,20.90
2019-05-01T16:07:44.108Z,21.00
2019-05-01T16:10:19.297Z,21.00
2019-05-01T16:12:52.162Z,21.00
2019-05-01T16:15:24.155Z,21.00
2019-05-01T16:17:54.012Z,21.10
2019-05-01T16:20:23.920Z,21.00
2019-05-01T16:22:53.919Z,20.70
2019-05-01T16:25:23.979Z,20.40
2019-05-01T16:27:54.105Z,20.20
2019-05-01T16:30:27.227Z,20.10
2019-05-01T16:32:57.956Z,20.10
2019-05-01T16:35:31.848Z,20.10
2019-05-01T16:38:03.802Z,20.10
2019-05-01T16:40:46.032Z,20.00
2019-05-01T16:43:18.916Z,20.00
2019-05-01T16:45:50.221Z,20.00
2019-05-01T16:48:22.069Z,20.00
2019-05-01T16:50:52.853Z,19.90
2019-05-01T16:53:23.191Z,19.80
2019-05-01T16:55:53.460Z,19.70
2019-05-01T16:58:23.507Z,19.50
2019-05-01T17:00:56.564Z,19.20
2019-05-01T17:03:34.289Z,19.10
2019-05-01T17:06:15.344Z,19.00
2019-05-01T17:08:49.375Z,18.70
2019-05-01T17:11:21.042Z,18.60
2019-05-01T17:13:50.981Z,18.50
2019-05-01T17:16:23.182Z,18.40
2019-05-01T17:18:54.455Z,18.40
2019-05-01T17:21:24.316Z,18.40
2019-05-01T17:23:54.231Z,18.50
2019-05-01T17:26:24.728Z,18.50
2019-05-01T17:28:54.845Z,18.60
2019-05-01T17:31:27.649Z,18.60
2019-05-01T17:33:58.648Z,18.50
2019-05-01T17:36:28.516Z,18.40
2019-05-01T17:38:58.392Z,18.40
2019-05-01T17:41:28.666Z,18.30
2019-05-01T17:44:05.502Z,18.30
2019-05-01T17:46:41.791Z,18.20
2019-05-01T17:49:18.997Z,18.00
2019-05-01T17:51:51.404Z,17.90
2019-05-01T17:54:24.067Z,17.80
2019-05-01T17:56:56.225Z,17.70
2019-05-01T17:59:30.058Z,17.60
2019-05-01T18:02:10.124Z,17.60
2019-05-01T18:04:54.700Z,17.50
2019-05-01T18:07:33.193Z,17.40
2019-05-01T18:10:03.115Z,17.40
2019-05-01T18:12:36.463Z,17.40
2019-05-01T18:15:08.726Z,17.20
2019-05-01T18:17:44.305Z,17.20
2019-05-01T18:20:16.438Z,17.10
2019-05-01T18:22:58.011Z,17.00
2019-05-01T18:25:49.150Z,17.00
2019-05-01T18:28:29.953Z,17.00
2019-05-01T18:30:58.908Z,16.80
2019-05-01T18:33:30.710Z,16.70
2019-05-01T18:36:00.659Z,16.70
2019-05-01T18:38:34.964Z,16.60
2019-05-01T18:41:09.427Z,16.50
2019-05-01T18:43:39.472Z,16.40
2019-05-01T18:46:11.431Z,16.30
2019-05-01T18:48:41.560Z,16.30
2019-05-01T18:51:11.568Z,16.30
2019-05-01T18:53:41.966Z,16.20
2019-05-01T18:56:11.891Z,16.10
2019-05-01T18:58:42.110Z,16.20
2019-05-01T19:01:12.142Z,16.10
2019-05-01T19:03:42.709Z,16.10
2019-05-01T19:06:13.872Z,16.00
2019-05-01T19:08:43.827Z,15.90
2019-05-01T19:11:14.442Z,15.80
2019-05-01T19:13:44.428Z,15.80
2019-05-01T19:16:16.054Z,15.70
2019-05-01T19:18:48.819Z,15.70
2019-05-01T19:21:23.736Z,15.60
2019-05-01T19:24:00.605Z,15.60
2019-05-01T19:26:31.620Z,15.60
2019-05-01T19:29:03.742Z,15.50
2019-05-01T19:31:34.271Z,15.50
2019-05-01T19:34:04.530Z,15.50
2019-05-01T19:36:35.463Z,15.40
2019-05-01T19:39:11.807Z,15.30
2019-05-01T19:41:43.831Z,15.30
2019-05-01T19:44:18.842Z,15.30
2019-05-01T19:46:47.698Z,15.20
2019-05-01T19:49:17.746Z,15.20
2019-05-01T19:51:48.590Z,15.20
2019-05-01T19:54:23.157Z,15.10
2019-05-01T19:56:51.528Z,15.00
2019-05-01T19:59:22.335Z,14.90
2019-05-01T20:01:53.952Z,14.80
2019-05-01T20:04:26.096Z,14.70
2019-05-01T20:06:57.965Z,14.60
2019-05-01T20:09:28.296Z,14.60
2019-05-01T20:11:59.625Z,14.50
2019-05-01T20:14:30.443Z,14.50
2019-05-01T20:17:04.860Z,14.40
2019-05-01T20:19:33.455Z,14.40
2019-05-01T20:22:04.822Z,14.40
2019-05-01T20:24:39.738Z,14.30
2019-05-01T20:27:07.222Z,14.30
2019-05-01T20:29:37.345Z,14.30
2019-05-01T20:32:07.377Z,14.20
2019-05-01T20:34:39.271Z,14.10
2019-05-01T20:37:10.137Z,14.00
2019-05-01T20:39:41.473Z,14.00
2019-05-01T20:42:13.477Z,13.90
2019-05-01T20:44:44.086Z,13.90
2019-05-01T20:47:15.551Z,14.00
2019-05-01T20:49:46.119Z,13.90
2019-05-01T20:52:16.148Z,13.80
2019-05-01T20:54:46.128Z,13.80
2019-05-01T20:57:20.924Z,13.70
2019-05-01T20:59:49.310Z,13.60
2019-05-01T21:02:19.223Z,13.60
2019-05-01T21:04:53.559Z,13.60
2019-05-01T21:07:31.098Z,13.60
2019-05-01T21:10:02.608Z,13.50
2019-05-01T21:12:32.674Z,13.50
2019-05-01T21:15:02.979Z,13.40
2019-05-01T21:17:33.988Z,13.30
2019-05-01T21:20:05.858Z,13.30
2019-05-01T21:22:35.748Z,13.20
2019-05-01T21:25:06.299Z,13.20
2019-05-01T21:27:36.163Z,13.10
2019-05-01T21:30:09.403Z,13.10
2019-05-01T21:32:39.261Z,13.00
2019-05-01T21:35:09.135Z,13.00
2019-05-01T21:37:40.073Z,12.90
2019-05-01T21:40:10.178Z,12.90
2019-05-01T21:42:40.116Z,12.80
2019-05-01T21:45:12.303Z,12.80
2019-05-01T21:47:42.650Z,12.80
2019-05-01T21:50:13.325Z,12.80
2019-05-01T21:52:43.761Z,12.70
2019-05-01T21:55:13.864Z,12.80
2019-05-01T21:57:45.031Z,12.70
2019-05-01T22:00:20.005Z,12.60
2019-05-01T22:02:49.586Z,12.60
2019-05-01T22:05:20.521Z,12.60
2019-05-01T22:07:50.396Z,12.60
2019-05-01T22:10:21.626Z,12.50
2019-05-01T22:12:51.992Z,12.50
2019-05-01T22:15:27.432Z,12.40
2019-05-01T22:18:01.643Z,12.40
2019-05-01T22:20:36.451Z,12.30
2019-05-01T22:23:08.325Z,12.20
2019-05-01T22:25:42.555Z,12.20
2019-05-01T22:28:30.402Z,12.20
2019-05-01T22:31:01.984Z,12.20
2019-05-01T22:33:31.866Z,12.20
2019-05-01T22:36:01.802Z,12.20
2019-05-01T22:38:31.750Z,12.20
2019-05-01T22:41:07.265Z,12.10
2019-05-01T22:43:37.330Z,12.00
2019-05-01T22:46:09.061Z,11.90
2019-05-01T22:48:39.918Z,11.90
2019-05-01T22:51:11.480Z,11.80
2019-05-01T22:53:41.360Z,11.70
2019-05-01T22:56:11.214Z,11.70
2019-05-01T22:58:41.178Z,11.60
2019-05-01T23:01:13.218Z,11.60
2019-05-01T23:03:44.329Z,11.60
2019-05-01T23:06:14.898Z,11.50
2019-05-01T23:08:45.007Z,11.50
2019-05-01T23:11:20.164Z,11.50
2019-05-01T23:13:46.502Z,11.40
2019-05-01T23:16:18.076Z,11.40
2019-05-01T23:18:51.936Z,11.40
2019-05-01T23:21:19.711Z,11.40
2019-05-01T23:23:49.669Z,11.30
2019-05-01T23:26:19.666Z,11.30
2019-05-01T23:28:49.783Z,11.30
2019-05-01T23:31:20.127Z,11.20
2019-05-01T23:33:51.870Z,11.20
2019-05-01T23:36:23.685Z,11.10
2019-05-01T23:38:53.365Z,11.10
2019-05-01T23:41:44.622Z,11.00
2019-05-01T23:43:58.306Z,11.00
2019-05-01T23:46:26.364Z,11.00
2019-05-01T23:48:56.305Z,10.90
2019-05-01T23:51:28.715Z,11.00
2019-05-01T23:53:57.723Z,11.00
2019-05-01T23:56:31.026Z,10.90
2019-05-01T23:58:59.157Z,10.80
